createdAt,value
2022-11-27T00:00:18.789Z,52.20
2022-11-27T00:01:18.779Z,46.20
2022-11-27T00:02:18.825Z,40.10
2022-11-27T00:03:18.831Z,43.30
2022-11-27T00:04:18.835Z,40.60
2022-11-27T00:05:18.705Z,44.60
2022-11-27T00:06:18.816Z,39.70
2022-11-27T00:07:18.726Z,43.00
2022-11-27T00:08:18.666Z,41.20
2022-11-27T00:09:18.623Z,44.50
2022-11-27T00:10:18.667Z,47.00
2022-11-27T00:11:18.601Z,40.80
2022-11-27T00:12:18.756Z,40.30
2022-11-27T00:13:18.600Z,39.30
2022-11-27T00:14:18.586Z,37.10
2022-11-27T00:15:18.569Z,38.40
2022-11-27T00:16:18.620Z,48.30
2022-11-27T00:17:18.523Z,42.70
2022-11-27T00:18:18.591Z,37.60
2022-11-27T00:19:18.512Z,38.90
2022-11-27T00:20:18.506Z,41.30
2022-11-27T00:21:18.495Z,45.80
2022-11-27T00:22:18.510Z,47.70
2022-11-27T00:23:18.434Z,38.90
2022-11-27T00:24:18.535Z,38.90
2022-11-27T00:25:18.444Z,43.50
2022-11-27T00:26:18.436Z,42.20
2022-11-27T00:27:18.405Z,36.80
2022-11-27T00:28:18.398Z,45.60
2022-11-27T00:29:18.356Z,37.30
2022-11-27T00:30:18.536Z,40.60
2022-11-27T00:31:18.377Z,42.80
2022-11-27T00:32:18.403Z,48.10
2022-11-27T00:33:18.324Z,45.40
2022-11-27T00:34:18.327Z,37.60
2022-11-27T00:35:18.308Z,44.10
2022-11-27T00:36:18.324Z,45.80
2022-11-27T00:37:18.304Z,43.40
2022-11-27T00:38:18.240Z,41.60
2022-11-27T00:39:18.288Z,41.40
2022-11-27T00:40:18.207Z,43.90
2022-11-27T00:41:18.226Z,46.60
2022-11-27T00:42:18.333Z,46.80
2022-11-27T00:43:18.199Z,48.70
2022-11-27T00:44:18.203Z,43.70
2022-11-27T00:45:18.192Z,48.30
2022-11-27T00:46:18.152Z,43.70
2022-11-27T00:47:18.183Z,49.70
2022-11-27T00:48:18.148Z,44.20
2022-11-27T00:49:18.134Z,42.00
2022-11-27T00:50:18.109Z,43.30
2022-11-27T00:51:18.126Z,50.90
2022-11-27T00:52:18.057Z,51.50
2022-11-27T00:53:18.067Z,51.30
2022-11-27T00:54:20.775Z,43.50
2022-11-27T00:55:18.033Z,43.90
2022-11-27T00:56:18.031Z,45.30
2022-11-27T00:57:18.046Z,43.30
2022-11-27T00:58:17.972Z,47.20
2022-11-27T00:59:18.019Z,51.10
2022-11-27T01:00:17.964Z,48.50
2022-11-27T01:01:18.025Z,43.70
2022-11-27T01:02:18.020Z,47.30
2022-11-27T01:03:17.963Z,48.60
2022-11-27T01:04:17.926Z,43.20
2022-11-27T01:05:17.926Z,47.90
2022-11-27T01:06:17.916Z,42.60
2022-11-27T01:07:17.959Z,42.20
2022-11-27T01:08:17.863Z,46.50
2022-11-27T01:09:17.874Z,44.30
2022-11-27T01:10:17.799Z,47.00
2022-11-27T01:11:17.845Z,49.40
2022-11-27T01:12:17.811Z,52.90
2022-11-27T01:13:17.802Z,51.00
2022-11-27T01:14:17.775Z,46.60
2022-11-27T01:15:17.768Z,47.10
2022-11-27T01:16:17.890Z,53.00
2022-11-27T01:17:18.397Z,56.70
2022-11-27T01:18:17.719Z,56.70
2022-11-27T01:19:17.754Z,50.90
2022-11-27T01:20:17.669Z,51.10
2022-11-27T01:21:17.684Z,49.90
2022-11-27T01:22:17.668Z,52.90
2022-11-27T01:23:17.677Z,64.10
2022-11-27T01:24:17.752Z,50.70
2022-11-27T01:25:17.629Z,51.00
2022-11-27T01:26:17.608Z,55.40
2022-11-27T01:27:17.592Z,59.40
2022-11-27T01:28:17.585Z,64.70
2022-11-27T01:29:17.601Z,51.20
2022-11-27T01:30:17.641Z,57.40
2022-11-27T01:31:17.634Z,57.50
2022-11-27T01:32:17.513Z,54.90
2022-11-27T01:33:17.521Z,63.30
2022-11-27T01:34:17.522Z,54.90
2022-11-27T01:35:17.512Z,56.40
2022-11-27T01:36:17.597Z,51.40
2022-11-27T01:37:17.497Z,60.30
2022-11-27T01:38:17.446Z,64.50
2022-11-27T01:39:17.460Z,55.90
2022-11-27T01:40:17.393Z,60.60
2022-11-27T01:41:17.404Z,62.20
2022-11-27T01:42:17.540Z,57.90
2022-11-27T01:43:17.409Z,57.40
2022-11-27T01:44:17.382Z,62.90
2022-11-27T01:45:17.389Z,57.90
2022-11-27T01:46:17.510Z,61.60
2022-11-27T01:47:17.362Z,62.70
2022-11-27T01:48:17.406Z,60.50
2022-11-27T01:49:17.316Z,61.50
2022-11-27T01:50:17.314Z,62.50
2022-11-27T01:51:17.286Z,62.20
2022-11-27T01:52:17.261Z,60.90
2022-11-27T01:53:17.275Z,62.20
2022-11-27T01:54:17.230Z,63.90
2022-11-27T01:55:17.227Z,65.10
2022-11-27T01:56:17.214Z,65.80
2022-11-27T01:57:17.224Z,58.20
2022-11-27T01:58:17.159Z,64.40
2022-11-27T01:59:17.199Z,60.90
2022-11-27T02:00:17.171Z,69.00
2022-11-27T02:01:17.188Z,60.10
2022-11-27T02:02:17.186Z,57.80
2022-11-27T02:03:17.158Z,57.80
2022-11-27T02:04:17.127Z,70.30
2022-11-27T02:05:17.116Z,64.80
2022-11-27T02:06:17.172Z,62.10
2022-11-27T02:07:17.136Z,61.60
2022-11-27T02:08:17.033Z,61.10
2022-11-27T02:09:17.042Z,64.60
2022-11-27T02:10:17.018Z,61.30
2022-11-27T02:11:17.055Z,66.00
2022-11-27T02:12:17.005Z,60.90
2022-11-27T02:13:16.989Z,58.60
2022-11-27T02:14:16.978Z,58.90
2022-11-27T02:15:16.961Z,70.10
2022-11-27T02:16:18.315Z,66.00
2022-11-27T02:17:16.962Z,63.10
2022-11-27T02:18:16.925Z,59.00
2022-11-27T02:19:16.932Z,57.20
2022-11-27T02:20:16.872Z,64.70
2022-11-27T02:21:16.882Z,61.20
2022-11-27T02:22:16.861Z,69.30
2022-11-27T02:23:16.851Z,60.90
2022-11-27T02:24:16.953Z,56.80
2022-11-27T02:25:16.861Z,60.80
2022-11-27T02:26:16.785Z,66.70
2022-11-27T02:27:16.796Z,64.60
2022-11-27T02:28:16.784Z,66.80
2022-11-27T02:29:16.801Z,59.60
2022-11-27T02:30:16.792Z,67.10
2022-11-27T02:31:16.847Z,71.10
2022-11-27T02:32:16.699Z,63.40
2022-11-27T02:33:16.716Z,61.00
2022-11-27T02:34:16.716Z,59.30
2022-11-27T02:35:16.688Z,55.80
2022-11-27T02:36:16.705Z,62.40
2022-11-27T02:37:16.704Z,75.70
2022-11-27T02:38:16.627Z,61.20
2022-11-27T02:39:16.671Z,63.90
2022-11-27T02:40:16.599Z,56.50
2022-11-27T02:41:16.609Z,51.50
2022-11-27T02:42:16.654Z,59.60
2022-11-27T02:43:16.592Z,56.80
2022-11-27T02:44:16.577Z,54.40
2022-11-27T02:45:16.586Z,58.40
2022-11-27T02:46:16.552Z,54.50
2022-11-27T02:47:16.576Z,51.60
2022-11-27T02:48:16.619Z,57.10
2022-11-27T02:49:16.511Z,57.90
2022-11-27T02:50:16.516Z,53.90
2022-11-27T02:51:16.498Z,53.40
2022-11-27T02:52:16.499Z,51.30
2022-11-27T02:53:16.513Z,45.10
2022-11-27T02:54:16.562Z,50.70
2022-11-27T02:55:16.470Z,50.50
2022-11-27T02:56:16.430Z,50.90
2022-11-27T02:57:16.410Z,49.30
2022-11-27T02:58:16.397Z,43.80
2022-11-27T02:59:16.427Z,44.80
2022-11-27T03:00:16.466Z,53.90
2022-11-27T03:01:16.425Z,52.40
2022-11-27T03:02:16.411Z,51.50
2022-11-27T03:03:16.383Z,42.70
2022-11-27T03:04:16.310Z,41.50
2022-11-27T03:05:16.339Z,49.40
2022-11-27T03:06:16.401Z,53.10
2022-11-27T03:07:16.366Z,43.10
2022-11-27T03:08:16.235Z,47.00
2022-11-27T03:09:16.247Z,40.10
2022-11-27T03:10:16.241Z,38.40
2022-11-27T03:11:16.235Z,42.50
2022-11-27T03:12:16.250Z,42.80
2022-11-27T03:13:16.239Z,42.70
2022-11-27T03:14:16.163Z,44.90
2022-11-27T03:15:16.170Z,35.90
2022-11-27T03:16:16.206Z,39.10
2022-11-27T03:17:16.171Z,41.50
2022-11-27T03:18:16.218Z,45.90
2022-11-27T03:19:16.152Z,38.90
2022-11-27T03:20:16.075Z,44.60
2022-11-27T03:21:16.101Z,34.70
2022-11-27T03:22:16.097Z,39.20
2022-11-27T03:23:16.070Z,43.20
2022-11-27T03:24:16.075Z,43.40
2022-11-27T03:25:16.079Z,49.40
2022-11-27T03:26:16.008Z,33.70
2022-11-27T03:27:16.055Z,38.00
2022-11-27T03:28:15.979Z,42.00
2022-11-27T03:29:15.993Z,48.80
2022-11-27T03:30:16.085Z,44.70
2022-11-27T03:31:16.037Z,44.60
2022-11-27T03:32:15.921Z,35.30
2022-11-27T03:33:15.929Z,33.30
2022-11-27T03:34:15.927Z,42.10
2022-11-27T03:35:15.910Z,47.10
2022-11-27T03:36:16.053Z,47.00
2022-11-27T03:37:15.907Z,49.60
2022-11-27T03:38:15.866Z,39.90
2022-11-27T03:39:15.914Z,37.80
2022-11-27T03:40:15.851Z,45.30
2022-11-27T03:41:15.841Z,53.00
2022-11-27T03:42:15.859Z,53.00
2022-11-27T03:43:15.795Z,47.30
2022-11-27T03:44:15.790Z,40.60
2022-11-27T03:45:15.826Z,47.10
2022-11-27T03:46:15.780Z,58.40
2022-11-27T03:47:15.825Z,52.00
2022-11-27T03:48:15.813Z,51.70
2022-11-27T03:49:15.734Z,42.60
2022-11-27T03:50:15.743Z,43.10
2022-11-27T03:51:15.685Z,51.70
2022-11-27T03:52:15.672Z,50.60
2022-11-27T03:53:15.692Z,52.80
2022-11-27T03:54:15.745Z,53.00
2022-11-27T03:55:15.670Z,39.40
2022-11-27T03:56:15.608Z,49.30
2022-11-27T03:57:15.626Z,60.70
2022-11-27T03:58:15.602Z,58.20
2022-11-27T03:59:15.595Z,41.70
2022-11-27T04:00:15.692Z,52.10
2022-11-27T04:01:15.593Z,53.30
2022-11-27T04:02:15.599Z,39.70
2022-11-27T04:03:15.541Z,51.10
2022-11-27T04:04:15.560Z,55.00
2022-11-27T04:05:15.534Z,50.90
2022-11-27T04:06:15.489Z,56.70
2022-11-27T04:07:15.548Z,42.00
2022-11-27T04:08:15.448Z,41.30
2022-11-27T04:09:15.467Z,51.40
2022-11-27T04:10:15.466Z,63.60
2022-11-27T04:11:15.440Z,58.50
2022-11-27T04:12:15.437Z,49.20
2022-11-27T04:13:15.437Z,54.30
2022-11-27T04:14:15.363Z,43.00
2022-11-27T04:15:15.397Z,47.00
2022-11-27T04:16:15.370Z,51.90
2022-11-27T04:17:15.340Z,53.20
2022-11-27T04:18:15.436Z,52.60
2022-11-27T04:19:15.347Z,47.40
2022-11-27T04:20:15.292Z,47.20
2022-11-27T04:21:15.309Z,52.80
2022-11-27T04:22:15.287Z,53.00
2022-11-27T04:23:15.277Z,47.90
2022-11-27T04:24:15.287Z,53.60
2022-11-27T04:25:15.269Z,52.00
2022-11-27T04:26:15.221Z,53.00
2022-11-27T04:27:15.237Z,52.50
2022-11-27T04:28:15.183Z,40.90
2022-11-27T04:29:15.193Z,47.30
2022-11-27T04:30:15.191Z,49.50
2022-11-27T04:31:15.166Z,54.50
2022-11-27T04:32:15.151Z,50.30
2022-11-27T04:33:15.159Z,54.10
2022-11-27T04:34:15.094Z,41.20
2022-11-27T04:35:15.114Z,42.30
2022-11-27T04:36:15.206Z,53.50
2022-11-27T04:37:15.101Z,55.30
2022-11-27T04:38:15.054Z,57.40
2022-11-27T04:39:15.091Z,54.40
2022-11-27T04:40:15.044Z,58.30
2022-11-27T04:41:15.015Z,43.90
2022-11-27T04:42:15.042Z,57.30
2022-11-27T04:43:15.008Z,61.70
2022-11-27T04:44:14.973Z,60.60
2022-11-27T04:45:14.999Z,50.30
2022-11-27T04:46:14.984Z,56.60
2022-11-27T04:47:14.962Z,46.20
2022-11-27T04:48:14.944Z,45.80
2022-11-27T04:49:14.917Z,54.90
2022-11-27T04:50:14.895Z,65.80
2022-11-27T04:51:14.857Z,59.50
2022-11-27T04:52:14.912Z,55.20
2022-11-27T04:53:14.877Z,59.90
2022-11-27T04:54:14.887Z,42.80
2022-11-27T04:55:14.837Z,46.40
2022-11-27T04:56:14.818Z,56.30
2022-11-27T04:57:14.782Z,54.60
2022-11-27T04:58:14.833Z,53.90
2022-11-27T04:59:14.761Z,51.60
2022-11-27T05:00:14.918Z,54.50
2022-11-27T05:01:14.795Z,42.30
2022-11-27T05:02:14.739Z,51.40
2022-11-27T05:03:14.822Z,53.30
2022-11-27T05:04:14.710Z,62.00
2022-11-27T05:05:14.689Z,52.10
2022-11-27T05:06:14.766Z,50.80
2022-11-27T05:07:14.684Z,49.00
2022-11-27T05:08:14.661Z,56.10
2022-11-27T05:09:14.636Z,58.80
2022-11-27T05:10:14.658Z,57.60
2022-11-27T05:11:14.582Z,45.60
2022-11-27T05:12:14.677Z,45.90
2022-11-27T05:13:14.607Z,56.90
2022-11-27T05:14:14.580Z,55.40
2022-11-27T05:15:14.568Z,50.10
2022-11-27T05:16:14.639Z,47.30
2022-11-27T05:17:14.512Z,43.40
2022-11-27T05:18:14.589Z,58.20
2022-11-27T05:19:14.517Z,67.70
2022-11-27T05:20:14.549Z,63.00
2022-11-27T05:21:14.490Z,50.40
2022-11-27T05:22:14.475Z,61.00
2022-11-27T05:23:14.457Z,46.20
2022-11-27T05:24:14.518Z,51.60
2022-11-27T05:25:14.436Z,55.80
2022-11-27T05:26:14.425Z,61.80
2022-11-27T05:27:14.410Z,57.90
2022-11-27T05:28:14.423Z,50.90
2022-11-27T05:29:14.363Z,51.00
2022-11-27T05:30:14.426Z,52.60
2022-11-27T05:31:14.433Z,56.80
2022-11-27T05:32:14.386Z,67.90
2022-11-27T05:33:14.349Z,68.50
2022-11-27T05:34:14.337Z,60.40
2022-11-27T05:35:14.328Z,57.40
2022-11-27T05:36:14.345Z,64.50
2022-11-27T05:37:19.243Z,54.50
2022-11-27T05:38:15.303Z,63.20
2022-11-27T05:39:14.267Z,56.20
2022-11-27T05:40:14.236Z,59.20
2022-11-27T05:41:14.207Z,68.20
2022-11-27T05:42:14.271Z,74.80
2022-11-27T05:43:14.171Z,62.50
2022-11-27T05:44:14.217Z,52.50
2022-11-27T05:45:14.168Z,56.60
2022-11-27T05:46:14.230Z,57.20
2022-11-27T05:47:14.146Z,63.90
2022-11-27T05:48:14.265Z,56.40
2022-11-27T05:49:14.099Z,61.70
2022-11-27T05:50:14.162Z,56.30
2022-11-27T05:51:14.077Z,59.00
2022-11-27T05:52:14.113Z,65.50
2022-11-27T05:53:14.076Z,63.30
2022-11-27T05:54:14.090Z,53.80
2022-11-27T05:55:14.038Z,53.60
2022-11-27T05:56:14.021Z,59.10
2022-11-27T05:57:13.990Z,60.30
2022-11-27T05:58:14.027Z,65.50
2022-11-27T05:59:13.960Z,56.90
2022-11-27T06:00:14.134Z,58.20
2022-11-27T06:01:13.979Z,62.40
2022-11-27T06:02:19.980Z,67.60
2022-11-27T06:03:14.974Z,54.20
2022-11-27T06:04:13.922Z,60.40
2022-11-27T06:05:13.901Z,50.90
2022-11-27T06:06:14.048Z,50.30
2022-11-27T06:07:13.865Z,55.70
2022-11-27T06:08:13.909Z,68.50
2022-11-27T06:09:13.902Z,64.50
2022-11-27T06:10:13.852Z,54.40
2022-11-27T06:11:13.802Z,63.70
2022-11-27T06:12:13.961Z,50.70
2022-11-27T06:13:13.811Z,53.90
2022-11-27T06:14:13.783Z,63.40
2022-11-27T06:15:13.770Z,65.80
2022-11-27T06:16:13.829Z,60.30
2022-11-27T06:17:13.722Z,50.70
2022-11-27T06:18:13.811Z,58.40
2022-11-27T06:19:13.704Z,65.20
2022-11-27T06:20:13.740Z,57.10
2022-11-27T06:21:13.692Z,51.00
2022-11-27T06:22:13.685Z,55.60
2022-11-27T06:23:13.671Z,60.50
2022-11-27T06:24:13.686Z,66.60
2022-11-27T06:25:13.616Z,50.80
2022-11-27T06:26:13.681Z,59.70
2022-11-27T06:27:13.621Z,48.80
2022-11-27T06:28:13.598Z,52.90
2022-11-27T06:29:13.559Z,64.70
2022-11-27T06:30:13.641Z,64.40
2022-11-27T06:31:17.711Z,60.20
2022-11-27T06:32:13.659Z,59.80
2022-11-27T06:33:13.564Z,58.00
2022-11-27T06:34:13.537Z,55.70
2022-11-27T06:35:13.514Z,58.90
2022-11-27T06:36:13.621Z,70.10
2022-11-27T06:37:13.758Z,66.80
2022-11-27T06:38:13.503Z,55.50
2022-11-27T06:39:13.438Z,57.20
2022-11-27T06:40:13.482Z,56.50
2022-11-27T06:41:13.442Z,51.30
2022-11-27T06:42:13.452Z,59.30
2022-11-27T06:43:13.389Z,68.50
2022-11-27T06:44:13.437Z,67.50
2022-11-27T06:45:13.380Z,61.40
2022-11-27T06:46:13.481Z,62.20
2022-11-27T06:47:13.359Z,50.50
2022-11-27T06:48:13.389Z,49.60
2022-11-27T06:49:13.305Z,60.70
2022-11-27T06:50:13.337Z,67.10
2022-11-27T06:51:13.290Z,61.10
2022-11-27T06:52:13.335Z,50.40
2022-11-27T06:53:13.278Z,56.80
2022-11-27T06:54:13.282Z,61.30
2022-11-27T06:55:13.248Z,54.50
2022-11-27T06:56:13.253Z,54.70
2022-11-27T06:57:13.193Z,58.90
2022-11-27T06:58:13.267Z,47.80
2022-11-27T06:59:13.184Z,51.70
2022-11-27T07:00:13.319Z,61.00
2022-11-27T07:01:13.240Z,61.30
2022-11-27T07:02:13.485Z,46.50
2022-11-27T07:04:34.964Z,44.60
2022-11-27T07:05:24.146Z,45.00
2022-11-27T07:06:24.153Z,52.60
2022-11-27T07:07:24.150Z,54.20
2022-11-27T07:08:24.097Z,58.70
2022-11-27T07:09:24.084Z,50.80
2022-11-27T07:10:24.069Z,49.20
2022-11-27T07:11:24.060Z,46.30
2022-11-27T07:12:24.073Z,53.70
2022-11-27T07:13:24.001Z,61.80
2022-11-27T07:14:24.045Z,56.70
2022-11-27T07:15:24.007Z,51.40
2022-11-27T07:16:24.037Z,46.00
2022-11-27T07:17:24.022Z,47.40
2022-11-27T07:18:23.960Z,53.00
2022-11-27T07:19:24.679Z,61.80
2022-11-27T07:20:23.966Z,54.00
2022-11-27T07:21:23.909Z,52.10
2022-11-27T07:22:23.957Z,54.50
2022-11-27T07:23:24.095Z,42.80
2022-11-27T07:24:23.911Z,52.40
2022-11-27T07:25:23.887Z,52.60
2022-11-27T07:26:23.891Z,55.90
2022-11-27T07:27:23.836Z,51.70
2022-11-27T07:28:23.878Z,60.80
2022-11-27T07:29:23.948Z,43.60
2022-11-27T07:30:23.850Z,46.60
2022-11-27T07:31:23.864Z,58.20
2022-11-27T07:32:23.826Z,59.80
2022-11-27T07:33:23.765Z,44.50
2022-11-27T07:34:23.799Z,51.50
2022-11-27T07:35:23.880Z,53.90
2022-11-27T07:36:23.752Z,51.30
2022-11-27T07:37:23.731Z,50.70
2022-11-27T07:38:23.713Z,39.30
2022-11-27T07:39:46.362Z,52.30
2022-11-27T07:40:24.830Z,60.00
2022-11-27T07:41:23.653Z,49.30
2022-11-27T07:42:37.372Z,53.90
2022-11-27T07:43:24.660Z,39.30
2022-11-27T07:44:23.635Z,38.70
2022-11-27T07:45:23.640Z,53.30
2022-11-27T07:46:23.662Z,45.70
2022-11-27T07:47:23.602Z,47.40
2022-11-27T07:48:23.579Z,44.60
2022-11-27T07:49:23.590Z,42.90
2022-11-27T07:50:23.556Z,39.90
2022-11-27T07:51:23.537Z,50.00
2022-11-27T07:52:23.586Z,46.50
2022-11-27T07:53:23.479Z,48.30
2022-11-27T07:54:23.533Z,49.00
2022-11-27T07:55:23.494Z,45.80
2022-11-27T07:56:23.476Z,33.70
2022-11-27T07:57:23.453Z,46.10
2022-11-27T07:58:23.499Z,43.90
2022-11-27T07:59:23.421Z,42.80
2022-11-27T08:00:23.459Z,41.70
2022-11-27T08:01:23.467Z,36.60
2022-11-27T08:02:23.418Z,34.10
2022-11-27T08:03:23.374Z,47.90
2022-11-27T08:04:23.485Z,53.20
2022-11-27T08:05:23.389Z,42.80
2022-11-27T08:06:23.377Z,43.70
2022-11-27T08:07:23.422Z,37.20
2022-11-27T08:08:23.329Z,36.10
2022-11-27T08:09:23.338Z,47.00
2022-11-27T08:10:23.330Z,49.60
2022-11-27T08:11:23.266Z,40.40
2022-11-27T08:12:23.300Z,37.40
2022-11-27T08:13:23.210Z,34.10
2022-11-27T08:14:23.265Z,44.80
2022-11-27T08:15:23.228Z,49.40
2022-11-27T08:16:23.283Z,39.50
2022-11-27T08:17:23.202Z,43.80
2022-11-27T08:18:23.188Z,33.70
2022-11-27T08:19:23.246Z,46.50
2022-11-27T08:20:23.165Z,55.90
2022-11-27T08:21:23.190Z,44.20
2022-11-27T08:22:23.139Z,42.60
2022-11-27T08:23:23.105Z,34.80
2022-11-27T08:24:23.104Z,33.40
2022-11-27T08:25:23.096Z,44.80
2022-11-27T08:26:23.088Z,53.50
2022-11-27T08:27:23.092Z,42.20
2022-11-27T08:28:23.065Z,44.50
2022-11-27T08:29:23.073Z,33.70
2022-11-27T08:30:22.996Z,36.10
2022-11-27T08:31:23.037Z,45.80
2022-11-27T08:32:23.003Z,50.00
2022-11-27T08:33:23.012Z,44.50
2022-11-27T08:34:22.977Z,34.20
2022-11-27T08:35:22.958Z,33.20
2022-11-27T08:36:22.954Z,49.50
2022-11-27T08:37:22.935Z,50.50
2022-11-27T08:38:22.914Z,44.30
2022-11-27T08:39:22.940Z,46.60
2022-11-27T08:40:23.008Z,32.90
2022-11-27T08:41:22.913Z,35.40
2022-11-27T08:42:22.838Z,49.10
2022-11-27T08:43:22.878Z,45.10
2022-11-27T08:44:22.924Z,45.70
2022-11-27T08:45:22.934Z,30.30
2022-11-27T08:46:22.976Z,32.50
2022-11-27T08:47:22.852Z,48.50
2022-11-27T08:48:22.785Z,38.60
2022-11-27T08:49:22.787Z,38.90
2022-11-27T08:50:22.816Z,28.60
2022-11-27T08:51:22.816Z,36.20
2022-11-27T08:52:22.804Z,45.40
2022-11-27T08:53:22.758Z,42.60
2022-11-27T08:54:22.689Z,32.00
2022-11-27T08:55:22.743Z,31.10
2022-11-27T08:56:22.712Z,37.60
2022-11-27T08:57:22.685Z,41.70
2022-11-27T08:58:22.728Z,40.00
2022-11-27T08:59:22.679Z,27.70
2022-11-27T09:00:27.715Z,27.10
2022-11-27T09:01:23.713Z,37.00
2022-11-27T09:02:22.592Z,36.90
2022-11-27T09:03:22.597Z,28.00
2022-11-27T09:04:22.735Z,34.50
2022-11-27T09:05:22.613Z,31.40
2022-11-27T09:06:22.527Z,25.20
2022-11-27T09:07:22.640Z,24.90
2022-11-27T09:08:22.532Z,33.70
2022-11-27T09:09:22.537Z,32.00
2022-11-27T09:10:22.624Z,29.20
2022-11-27T09:11:22.533Z,26.50
2022-11-27T09:12:22.451Z,31.60
2022-11-27T09:13:22.807Z,33.80
2022-11-27T09:14:22.430Z,30.20
2022-11-27T09:15:22.440Z,25.30
2022-11-27T09:16:22.602Z,25.70
2022-11-27T09:17:22.412Z,28.80
2022-11-27T09:18:22.388Z,31.10
2022-11-27T09:19:22.408Z,25.50
2022-11-27T09:20:22.376Z,22.90
2022-11-27T09:21:22.400Z,25.70
2022-11-27T09:22:22.340Z,29.50
2022-11-27T09:23:22.346Z,30.40
2022-11-27T09:24:22.328Z,22.90
2022-11-27T09:25:22.301Z,23.80
2022-11-27T09:26:22.291Z,27.80
2022-11-27T09:27:22.300Z,23.80
2022-11-27T09:28:23.025Z,22.30
2022-11-27T09:29:22.277Z,25.80
2022-11-27T09:30:22.221Z,23.80
2022-11-27T09:31:22.235Z,31.80
2022-11-27T09:32:22.284Z,23.80
2022-11-27T09:33:22.193Z,24.30
2022-11-27T09:34:22.210Z,24.40
2022-11-27T09:35:22.239Z,26.90
2022-11-27T09:36:22.129Z,24.80
2022-11-27T09:37:22.184Z,23.30
2022-11-27T09:38:22.132Z,22.80
2022-11-27T09:39:22.143Z,22.20
2022-11-27T09:40:22.170Z,24.20
2022-11-27T09:41:22.120Z,22.90
2022-11-27T09:42:22.055Z,26.20
2022-11-27T09:43:22.063Z,21.50
2022-11-27T09:44:22.072Z,21.90
2022-11-27T09:45:22.036Z,23.00
2022-11-27T09:46:22.199Z,22.60
2022-11-27T09:47:22.042Z,26.10
2022-11-27T09:48:21.986Z,21.30
2022-11-27T09:49:22.018Z,24.50
2022-11-27T09:50:22.029Z,20.80
2022-11-27T09:51:21.978Z,23.00
2022-11-27T09:52:21.991Z,24.20
2022-11-27T09:53:21.956Z,22.90
2022-11-27T09:54:21.878Z,23.20
2022-11-27T09:55:22.040Z,23.30
2022-11-27T09:56:21.896Z,25.10
2022-11-27T09:57:21.879Z,24.80
2022-11-27T09:58:22.096Z,25.00
2022-11-27T09:59:21.873Z,24.80
2022-11-27T10:00:21.951Z,21.30
2022-11-27T10:01:21.943Z,20.40
2022-11-27T10:02:21.917Z,20.10
2022-11-27T10:03:21.824Z,20.30
2022-11-27T10:04:21.832Z,23.80
2022-11-27T10:05:22.556Z,29.20
2022-11-27T10:06:21.760Z,24.90
2022-11-27T10:07:21.835Z,23.20
2022-11-27T10:08:21.692Z,21.60
2022-11-27T10:09:21.732Z,20.30
2022-11-27T10:10:21.769Z,24.10
2022-11-27T10:11:21.739Z,20.80
2022-11-27T10:12:21.642Z,20.90
2022-11-27T10:13:21.680Z,24.90
2022-11-27T10:14:21.923Z,20.10
2022-11-27T10:15:21.643Z,25.00
2022-11-27T10:16:21.764Z,20.20
2022-11-27T10:17:21.606Z,22.20
2022-11-27T10:18:21.605Z,20.80
2022-11-27T10:19:21.612Z,20.40
2022-11-27T10:20:21.538Z,22.40
2022-11-27T10:21:21.632Z,23.20
2022-11-27T10:22:21.621Z,20.70
2022-11-27T10:23:21.533Z,22.30
2022-11-27T10:24:21.503Z,18.00
2022-11-27T10:25:21.495Z,20.00
2022-11-27T10:26:21.483Z,19.20
2022-11-27T10:27:21.493Z,22.10
2022-11-27T10:28:21.537Z,18.10
2022-11-27T10:29:21.464Z,21.70
2022-11-27T10:30:21.400Z,19.30
2022-11-27T10:31:21.456Z,18.60
2022-11-27T10:32:53.660Z,19.90
2022-11-27T10:33:22.459Z,17.30
2022-11-27T10:34:21.373Z,18.50
2022-11-27T10:35:21.393Z,17.80
2022-11-27T10:36:21.320Z,17.80
2022-11-27T10:37:21.362Z,16.90
2022-11-27T10:38:21.313Z,17.60
2022-11-27T10:39:21.419Z,19.70
2022-11-27T10:40:21.306Z,19.90
2022-11-27T10:41:48.215Z,16.80
2022-11-27T10:42:22.241Z,17.30
2022-11-27T10:43:21.250Z,19.90
2022-11-27T10:44:21.237Z,17.30
2022-11-27T10:45:21.399Z,18.60
2022-11-27T10:46:21.248Z,17.70
2022-11-27T10:47:21.227Z,17.90
2022-11-27T10:48:21.160Z,18.60
2022-11-27T10:49:21.197Z,18.90
2022-11-27T10:50:21.138Z,17.50
2022-11-27T10:51:21.210Z,17.80
2022-11-27T10:52:21.136Z,18.00
2022-11-27T10:53:21.144Z,18.50
2022-11-27T10:54:21.111Z,19.50
2022-11-27T10:55:21.122Z,19.40
2022-11-27T10:56:21.363Z,18.50
2022-11-27T10:57:21.091Z,18.90
2022-11-27T10:58:21.052Z,16.90
2022-11-27T10:59:21.063Z,18.60
2022-11-27T11:00:21.000Z,15.80
2022-11-27T11:01:21.092Z,22.50
2022-11-27T11:02:21.332Z,25.60
2022-11-27T11:03:21.022Z,17.20
2022-11-27T11:04:38.311Z,18.80
2022-11-27T11:05:37.758Z,17.20
2022-11-27T11:06:23.261Z,17.90
2022-11-27T11:07:21.026Z,17.10
2022-11-27T11:08:20.899Z,18.60
2022-11-27T11:09:20.974Z,19.30
2022-11-27T11:10:20.877Z,16.80
2022-11-27T11:11:20.889Z,16.30
2022-11-27T11:12:20.864Z,18.90
2022-11-27T11:13:20.885Z,16.50
2022-11-27T11:14:20.841Z,16.90
2022-11-27T11:15:20.929Z,17.10
2022-11-27T11:16:24.330Z,17.60
2022-11-27T11:17:20.861Z,18.40
2022-11-27T11:18:20.801Z,20.00
2022-11-27T11:19:20.796Z,18.50
2022-11-27T11:20:20.768Z,16.20
2022-11-27T11:21:20.827Z,19.40
2022-11-27T11:22:20.708Z,16.20
2022-11-27T11:23:20.710Z,16.00
2022-11-27T11:24:20.698Z,17.00
2022-11-27T11:25:20.689Z,20.90
2022-11-27T11:26:20.677Z,18.00
2022-11-27T11:27:20.738Z,16.30
2022-11-27T11:28:20.641Z,18.90
2022-11-27T11:29:20.659Z,15.70
2022-11-27T11:30:20.609Z,19.40
2022-11-27T11:31:20.686Z,16.60
2022-11-27T11:32:20.633Z,17.60
2022-11-27T11:33:20.733Z,16.90
2022-11-27T11:34:20.582Z,19.80
2022-11-27T11:35:20.637Z,17.30
2022-11-27T11:36:20.532Z,18.70
2022-11-27T11:37:20.561Z,16.10
2022-11-27T11:38:20.532Z,16.50
2022-11-27T11:39:20.525Z,16.50
2022-11-27T11:40:20.499Z,19.90
2022-11-27T11:41:20.512Z,18.40
2022-11-27T11:42:20.475Z,20.90
2022-11-27T11:43:20.489Z,20.00
2022-11-27T11:44:20.419Z,17.50
2022-11-27T11:45:20.584Z,20.60
2022-11-27T11:46:21.359Z,17.00
2022-11-27T11:47:20.431Z,18.90
2022-11-27T11:48:20.351Z,18.10
2022-11-27T11:49:20.427Z,17.20
2022-11-27T11:50:20.351Z,24.30
2022-11-27T11:51:22.795Z,20.30
2022-11-27T11:52:21.326Z,18.40
2022-11-27T11:53:20.323Z,17.70
2022-11-27T11:54:20.317Z,17.40
2022-11-27T11:55:20.319Z,18.40
2022-11-27T11:56:20.239Z,17.70
2022-11-27T11:57:20.326Z,17.10
2022-11-27T11:58:20.231Z,18.20
2022-11-27T11:59:20.236Z,18.20
2022-11-27T12:00:22.889Z,19.70
2022-11-27T12:01:28.332Z,18.60
2022-11-27T12:02:21.345Z,18.80
2022-11-27T12:03:20.181Z,17.40
2022-11-27T12:04:20.246Z,17.00
2022-11-27T12:05:20.434Z,16.90
2022-11-27T12:06:20.139Z,16.50
2022-11-27T12:07:20.193Z,17.30
2022-11-27T12:08:20.204Z,16.50
2022-11-27T12:09:20.153Z,16.90
2022-11-27T12:10:20.064Z,16.00
2022-11-27T12:11:20.086Z,16.50
2022-11-27T12:12:20.080Z,16.50
2022-11-27T12:13:20.046Z,16.90
2022-11-27T12:14:20.142Z,16.90
2022-11-27T12:15:20.061Z,16.80
2022-11-27T12:16:20.040Z,16.10
2022-11-27T12:17:19.999Z,16.90
2022-11-27T12:18:19.979Z,15.50
2022-11-27T12:19:20.022Z,17.30
2022-11-27T12:20:19.987Z,15.10
2022-11-27T12:21:19.966Z,16.60
2022-11-27T12:22:19.922Z,14.90
2022-11-27T12:23:19.917Z,14.60
2022-11-27T12:24:19.901Z,16.70
2022-11-27T12:25:19.888Z,14.80
2022-11-27T12:26:19.905Z,16.40
2022-11-27T12:27:19.883Z,16.90
2022-11-27T12:28:19.818Z,17.10
2022-11-27T12:29:19.864Z,17.00
2022-11-27T12:30:19.809Z,16.80
2022-11-27T12:31:19.847Z,14.60
2022-11-27T12:32:19.907Z,18.00
2022-11-27T12:33:19.748Z,17.90
2022-11-27T12:34:19.797Z,16.30
2022-11-27T12:35:19.752Z,16.70
2022-11-27T12:36:19.740Z,14.40
2022-11-27T12:37:19.728Z,15.30
2022-11-27T12:38:19.748Z,15.20
2022-11-27T12:39:19.693Z,14.80
2022-11-27T12:40:19.714Z,17.30
2022-11-27T12:41:19.672Z,16.10
2022-11-27T12:42:22.176Z,15.90
2022-11-27T12:43:19.648Z,16.80
2022-11-27T12:44:19.652Z,15.90
2022-11-27T12:45:19.629Z,18.90
2022-11-27T12:46:19.680Z,15.90
2022-11-27T12:47:19.563Z,17.80
2022-11-27T12:48:19.630Z,17.50
2022-11-27T12:49:19.574Z,18.00
2022-11-27T12:50:19.617Z,17.20
2022-11-27T12:51:19.514Z,15.90
2022-11-27T12:52:19.903Z,15.50
2022-11-27T12:53:24.450Z,18.00